This is the latest recevied weather packets stored in our database for station/object R2AKT-13. If no packets are shown the sender has not sent any weather packets the latest 10 day(s).
| Time | Temp. | Humidity | Pressure | Rain* | Wind** | Luminosity | Snow |
|---|---|---|---|---|---|---|---|
| 1777644924 | 7.78° C | 53% | 996.1 hPa | - | 0.45 m/s, 130° | - | - |
| 1777644419 | 7.78° C | 51% | 996 hPa | - | 0.45 m/s, 154° | - | - |
| 1777643854 | 7.78° C | 49% | 996 hPa | - | 0.45 m/s, 202° | - | - |
| 1777642744 | 8.33° C | 48% | 996 hPa | - | 1.34 m/s, 185° | - | - |
| 1777642208 | 8.89° C | 44% | 996 hPa | - | 0.89 m/s, 160° | - | - |
| 1777641654 | 7.78° C | 47% | 996.1 hPa | - | 0.89 m/s, 288° | - | - |
| 1777641064 | 8.33° C | 46% | 996.1 hPa | - | 0.45 m/s, 248° | - | - |
| 1777639934 | 7.78° C | 48% | 996.2 hPa | - | 1.79 m/s, 262° | - | - |
| 1777637908 | 7.22° C | 45% | 996.3 hPa | - | 1.34 m/s, 224° | - | - |
| 1777637359 | 6.67° C | 47% | 996.3 hPa | - | 0.89 m/s, 267° | - | - |
| 1777636854 | 7.22° C | 43% | 996.4 hPa | - | 0.45 m/s, 218° | - | - |
| 1777636319 | 7.22° C | 43% | 996.4 hPa | - | 0.89 m/s, 271° | - | - |
| 1777635184 | 6.67° C | 45% | 996.4 hPa | - | 0.89 m/s, 238° | - | - |
| 1777634654 | 7.78° C | 44% | 996.3 hPa | - | 0.45 m/s, 144° | - | - |
| 1777634144 | 7.78° C | 45% | 996.3 hPa | - | 0.45 m/s, 142° | - | - |
| 1777633604 | 7.22° C | 46% | 996.4 hPa | - | 1.34 m/s, 276° | - | - |
| 1777633034 | 6.67° C | 46% | 996.3 hPa | - | 2.24 m/s, 296° | - | - |
| 1777632501 | 7.78° C | 45% | 996.4 hPa | - | 0.89 m/s, 166° | - | - |
| 1777632014 | 7.78° C | 44% | 996.4 hPa | - | 0.89 m/s, 290° | - | - |
| 1777631414 | 7.78° C | 44% | 996.3 hPa | - | 0.45 m/s, 287° | - | - |
| 1777630908 | 7.22° C | 46% | 996.4 hPa | - | 0.45 m/s, 123° | - | - |
| 1777630359 | 6.67° C | 45% | 996.4 hPa | - | 0.45 m/s, 314° | - | - |
| 1777629844 | 7.22° C | 46% | 996.4 hPa | - | 0.89 m/s, 223° | - | - |
| 1777629344 | 6.67° C | 46% | 996.4 hPa | - | 1.34 m/s, 266° | - | - |
| 1777628744 | 7.22° C | 46% | 996.4 hPa | - | 0.45 m/s, 189° | - | - |
* Rain since midnight (hover to see other rain measurements)
** Current wind speed in m/s (hover to see current wind gust speed)